Time;durP1;ratioP1;P1;durP2;ratioP2;P2;SDS_P1;SDS_P2;PMS_P1;PMS_P2;Temp;Humidity;BMP_temperature;BMP_pressure;BME280_temperature;BME280_humidity;BME280_pressure;Samples;Min_cycle;Max_cycle;Signal;HPM_P1;HPM_P2
2021/12/21 00:00:22;;;;;;;14.17;7.60;;;-0.20;99.90;;;;;;4177372;28;20473;-76
2021/12/21 00:02:24;;;;;;;14.60;7.13;;;-0.20;99.90;;;;;;4166280;28;20463;-75
2021/12/21 00:04:25;;;;;;;14.40;7.03;;;-0.20;99.90;;;;;;4169897;28;20694;-76
2021/12/21 00:06:28;;;;;;;24.90;7.37;;;-0.20;99.90;;;;;;4178194;28;20830;-80
2021/12/21 00:08:30;;;;;;;18.90;7.30;;;-0.20;99.90;;;;;;4177778;28;20518;-78
2021/12/21 00:10:34;;;;;;;16.73;7.37;;;-0.10;99.90;;;;;;4175767;28;20497;-77
2021/12/21 00:12:37;;;;;;;14.63;6.90;;;-0.20;99.90;;;;;;4175360;28;20481;-78
2021/12/21 00:14:48;;;;;;;18.07;7.57;;;-0.20;99.90;;;;;;4177635;28;20838;-78
2021/12/21 00:19:21;;;;;;;14.97;7.33;;;-0.20;99.90;;;;;;4171663;28;20493;-77
2021/12/21 00:21:34;;;;;;;19.07;7.77;;;-0.10;99.90;;;;;;4177445;28;20466;-77
2021/12/21 00:23:40;;;;;;;18.33;7.60;;;-0.20;99.90;;;;;;4178524;28;20500;-78
2021/12/21 00:25:42;;;;;;;16.30;7.87;;;-0.20;99.90;;;;;;4177621;28;20932;-77
2021/12/21 00:27:45;;;;;;;18.60;7.60;;;-0.20;99.90;;;;;;4175397;28;20476;-78
2021/12/21 00:29:47;;;;;;;17.10;7.07;;;-0.20;99.90;;;;;;4163206;28;21056;-77
2021/12/21 00:31:49;;;;;;;13.17;6.93;;;-0.20;99.90;;;;;;4174422;28;20492;-77
2021/12/21 00:33:50;;;;;;;15.60;7.30;;;-0.10;99.90;;;;;;4165307;28;20469;-77
2021/12/21 00:35:52;;;;;;;12.13;6.90;;;-0.10;99.90;;;;;;4161237;28;20483;-78
2021/12/21 00:37:54;;;;;;;17.50;7.77;;;-0.10;99.90;;;;;;4171898;28;20622;-76
2021/12/21 00:39:57;;;;;;;15.70;7.30;;;-0.10;99.90;;;;;;4172752;28;20959;-76
2021/12/21 00:42:01;;;;;;;13.30;7.30;;;-0.10;99.90;;;;;;4176185;28;20461;-77
2021/12/21 00:44:03;;;;;;;19.90;7.27;;;-0.10;99.90;;;;;;4176806;28;20474;-78
2021/12/21 00:46:06;;;;;;;13.13;7.20;;;-0.10;99.90;;;;;;4176857;28;20494;-76
2021/12/21 00:48:07;;;;;;;14.57;7.03;;;-0.10;99.90;;;;;;4177342;28;20530;-78
2021/12/21 00:50:16;;;;;;;15.47;7.80;;;0.00;99.90;;;;;;4176995;28;20480;-76
2021/12/21 00:52:18;;;;;;;16.27;7.33;;;0.00;99.90;;;;;;4175317;28;20496;-76
2021/12/21 00:54:20;;;;;;;15.63;7.77;;;0.00;99.90;;;;;;4179383;28;20461;-74
2021/12/21 00:56:23;;;;;;;16.63;7.37;;;0.00;99.90;;;;;;4179684;28;20493;-75
2021/12/21 00:58:25;;;;;;;19.80;7.37;;;0.00;99.90;;;;;;4177284;28;20465;-74
2021/12/21 01:00:27;;;;;;;18.03;7.97;;;0.00;99.90;;;;;;4172128;28;20872;-74
2021/12/21 01:02:29;;;;;;;17.10;7.53;;;0.00;99.90;;;;;;4173921;28;20541;-75
2021/12/21 01:04:36;;;;;;;16.00;7.77;;;0.00;99.90;;;;;;4167436;28;20458;-78
2021/12/21 01:06:42;;;;;;;14.47;7.60;;;0.00;99.90;;;;;;4170900;28;20461;-78
2021/12/21 01:08:58;;;;;;;14.03;6.73;;;0.10;99.90;;;;;;4177333;28;20889;-75
2021/12/21 01:11:10;;;;;;;15.97;7.10;;;0.10;99.90;;;;;;4176592;28;20499;-74
2021/12/21 01:13:31;;;;;;;13.30;6.60;;;0.10;99.90;;;;;;4173674;28;20462;-77
2021/12/21 01:15:48;;;;;;;12.93;6.77;;;0.10;99.90;;;;;;4179988;28;20500;-77
2021/12/21 01:17:56;;;;;;;14.33;7.10;;;0.10;99.90;;;;;;4180000;28;20560;-77
2021/12/21 01:20:04;;;;;;;15.07;7.77;;;0.10;99.90;;;;;;4181786;28;20992;-77
2021/12/21 01:22:13;;;;;;;15.87;7.17;;;0.10;99.90;;;;;;4178360;28;20461;-77
2021/12/21 01:26:43;;;;;;;14.47;7.53;;;0.10;99.90;;;;;;4177882;28;20537;-77
2021/12/21 01:28:52;;;;;;;21.13;8.63;;;0.10;99.90;;;;;;4168108;28;20469;-77
2021/12/21 01:31:01;;;;;;;18.20;8.13;;;0.10;99.90;;;;;;4173325;28;20576;-77
2021/12/21 01:33:16;;;;;;;18.73;8.03;;;0.10;99.90;;;;;;4160892;28;20519;-77
2021/12/21 01:35:26;;;;;;;16.47;8.20;;;0.10;99.90;;;;;;4165366;28;20484;-77
2021/12/21 01:37:39;;;;;;;16.17;6.80;;;0.20;99.90;;;;;;4175511;28;20457;-79
2021/12/21 01:42:08;;;;;;;17.40;7.67;;;0.20;99.90;;;;;;4161173;28;20468;-78
2021/12/21 01:44:25;;;;;;;16.27;7.23;;;0.20;99.90;;;;;;4176778;28;20479;-78
2021/12/21 01:51:05;;;;;;;17.67;7.50;;;0.20;99.90;;;;;;4176034;28;20495;-77
2021/12/21 01:53:07;;;;;;;14.00;6.73;;;0.20;99.90;;;;;;4173694;28;20881;-77
2021/12/21 01:55:09;;;;;;;15.80;7.30;;;0.20;99.90;;;;;;4176235;28;20501;-77
2021/12/21 01:57:11;;;;;;;14.17;7.07;;;0.20;99.90;;;;;;4176707;28;20713;-77
2021/12/21 01:59:14;;;;;;;17.03;7.60;;;0.20;99.90;;;;;;4162149;28;20466;-76
2021/12/21 02:01:18;;;;;;;13.90;7.33;;;0.20;99.90;;;;;;4171531;28;20465;-77
2021/12/21 02:03:21;;;;;;;14.47;6.70;;;0.20;99.90;;;;;;4168802;28;20981;-77
2021/12/21 02:05:23;;;;;;;16.57;7.17;;;0.20;99.90;;;;;;4165749;28;20557;-77
2021/12/21 02:07:25;;;;;;;16.00;7.63;;;0.20;99.90;;;;;;4176969;28;20977;-77
2021/12/21 02:09:35;;;;;;;13.57;7.20;;;0.20;99.90;;;;;;4166696;28;20527;-77
2021/12/21 02:11:38;;;;;;;16.00;7.93;;;0.10;99.90;;;;;;4172899;28;20498;-77
2021/12/21 02:13:44;;;;;;;14.53;7.20;;;0.10;99.90;;;;;;4176080;28;20461;-77
2021/12/21 02:15:47;;;;;;;14.33;7.07;;;0.10;99.90;;;;;;4199024;22;20496;-82
2021/12/21 02:18:30;;;;;;;15.80;7.90;;;0.10;99.90;;;;;;4189102;28;20464;-82
2021/12/21 02:20:44;;;;;;;15.20;7.33;;;0.10;99.90;;;;;;4191082;28;20533;-81
2021/12/21 02:22:52;;;;;;;16.57;7.90;;;0.10;99.90;;;;;;4189007;28;20465;-81
2021/12/21 02:25:02;;;;;;;13.60;7.17;;;0.10;99.90;;;;;;4193241;28;20506;-82
2021/12/21 02:27:17;;;;;;;14.93;7.63;;;0.20;99.90;;;;;;4177861;28;20957;-81
2021/12/21 02:29:25;;;;;;;16.70;7.90;;;0.10;99.90;;;;;;4169397;28;20476;-81
2021/12/21 02:31:27;;;;;;;17.57;7.47;;;0.10;99.90;;;;;;4176081;28;20520;-80
2021/12/21 02:33:29;;;;;;;14.20;7.23;;;0.10;99.90;;;;;;4177300;28;20476;-80
2021/12/21 02:35:31;;;;;;;15.77;8.13;;;0.10;99.90;;;;;;4179089;28;20492;-77
2021/12/21 02:37:34;;;;;;;12.70;6.70;;;0.10;99.90;;;;;;4174820;28;20509;-80
2021/12/21 02:39:36;;;;;;;17.07;7.53;;;0.10;99.90;;;;;;4176983;28;20834;-80
2021/12/21 02:41:38;;;;;;;16.27;7.07;;;0.10;99.90;;;;;;4176080;28;20453;-80
2021/12/21 02:43:40;;;;;;;17.03;7.70;;;0.10;99.90;;;;;;4177285;28;20445;-81
2021/12/21 02:45:43;;;;;;;17.13;8.20;;;0.30;99.90;;;;;;4186202;28;20479;-79
2021/12/21 02:47:45;;;;;;;17.70;7.83;;;0.00;99.90;;;;;;4175691;28;20449;-80
2021/12/21 02:49:46;;;;;;;18.37;7.70;;;0.00;99.90;;;;;;4176373;28;20456;-83
2021/12/21 02:51:49;;;;;;;15.37;7.93;;;0.00;99.90;;;;;;4176965;28;20538;-81
2021/12/21 02:53:52;;;;;;;18.13;8.37;;;0.00;99.90;;;;;;4178516;28;20468;-80
2021/12/21 02:55:54;;;;;;;18.87;7.47;;;0.00;99.90;;;;;;4175950;28;20539;-81
2021/12/21 02:57:57;;;;;;;15.10;7.20;;;0.00;99.90;;;;;;4175658;28;20452;-80
2021/12/21 03:00:00;;;;;;;14.67;7.50;;;0.00;99.90;;;;;;4176200;28;20531;-81
2021/12/21 03:02:02;;;;;;;16.17;7.83;;;0.00;99.90;;;;;;4179943;28;20473;-81
2021/12/21 03:04:05;;;;;;;19.23;7.80;;;0.00;99.90;;;;;;4169358;28;20473;-81
2021/12/21 03:06:12;;;;;;;18.40;8.10;;;-0.10;99.90;;;;;;4170300;28;20490;-81
2021/12/21 03:08:20;;;;;;;16.10;7.50;;;-0.10;99.90;;;;;;4179667;28;20460;-80
2021/12/21 03:10:25;;;;;;;18.63;8.53;;;-0.10;99.90;;;;;;4180785;28;20526;-80
2021/12/21 03:13:52;;;;;;;18.00;8.00;;;-0.10;99.90;;;;;;4188914;28;20467;-83
2021/12/21 03:14:55;;;;;;;18.50;7.97;;;-0.10;99.90;;;;;;4176991;28;20461;-81
2021/12/21 03:16:56;;;;;;;20.77;7.97;;;-0.10;99.90;;;;;;4180322;28;20827;-80
2021/12/21 03:18:59;;;;;;;17.40;7.93;;;-0.10;99.90;;;;;;4180522;28;20226;-81
2021/12/21 03:21:00;;;;;;;21.47;8.17;;;-0.10;99.90;;;;;;4173568;28;20477;-80
2021/12/21 03:23:02;;;;;;;16.00;7.77;;;-0.10;99.90;;;;;;4163742;28;20512;-80
2021/12/21 03:25:05;;;;;;;16.50;7.87;;;-0.10;99.90;;;;;;4177271;28;20437;-82
2021/12/21 03:27:08;;;;;;;16.67;8.33;;;-0.10;99.90;;;;;;4186700;28;20454;-81
2021/12/21 03:29:09;;;;;;;15.97;8.00;;;-0.10;99.90;;;;;;4179087;28;20452;-82
2021/12/21 03:31:11;;;;;;;18.07;8.20;;;-0.10;99.90;;;;;;4169148;28;20498;-80
2021/12/21 03:33:13;;;;;;;15.73;7.63;;;-0.10;99.90;;;;;;4181308;28;20464;-81
2021/12/21 03:35:15;;;;;;;19.13;8.17;;;-0.10;99.90;;;;;;4185070;28;20618;-79
2021/12/21 03:37:17;;;;;;;16.33;8.07;;;-0.10;99.90;;;;;;4179082;28;20465;-82
2021/12/21 03:39:20;;;;;;;20.83;8.93;;;-0.20;99.90;;;;;;4180594;28;20998;-82
2021/12/21 03:41:22;;;;;;;22.53;8.77;;;-0.20;99.90;;;;;;4185885;28;20473;-80
2021/12/21 03:43:25;;;;;;;21.17;8.50;;;-0.20;99.90;;;;;;4179002;28;20507;-81
2021/12/21 03:45:30;;;;;;;18.83;8.10;;;-0.30;99.90;;;;;;4177875;28;20504;-80
2021/12/21 03:47:32;;;;;;;18.77;9.10;;;-0.30;99.90;;;;;;4178368;28;20469;-82
2021/12/21 03:51:54;;;;;;;18.80;8.57;;;-0.40;99.90;;;;;;4179240;28;20491;-82
2021/12/21 03:53:56;;;;;;;14.93;8.17;;;-0.40;99.90;;;;;;4183346;28;20815;-82
2021/12/21 03:56:14;;;;;;;20.70;8.30;;;-0.40;99.90;;;;;;4183661;28;20484;-82
2021/12/21 03:58:15;;;;;;;15.57;8.10;;;-0.40;99.90;;;;;;4164219;28;20845;-81
2021/12/21 04:00:20;;;;;;;20.37;8.00;;;-0.50;99.90;;;;;;4175271;28;20456;-82
2021/12/21 04:02:24;;;;;;;19.33;8.17;;;-0.50;99.90;;;;;;4180035;28;20504;-82
2021/12/21 04:04:26;;;;;;;18.83;8.33;;;-0.50;99.90;;;;;;4176890;28;20903;-82
2021/12/21 04:06:27;;;;;;;19.67;8.33;;;-0.50;99.90;;;;;;4183783;28;20488;-82
2021/12/21 04:08:29;;;;;;;20.57;8.83;;;-0.60;99.90;;;;;;4179347;28;20441;-82
2021/12/21 04:10:31;;;;;;;17.30;8.67;;;-0.60;99.90;;;;;;4179770;28;20511;-81
2021/12/21 04:12:33;;;;;;;18.50;8.13;;;-0.60;99.90;;;;;;4175074;28;20525;-82
2021/12/21 04:14:36;;;;;;;20.73;9.13;;;-0.60;99.90;;;;;;4163152;28;20516;-82
2021/12/21 04:16:40;;;;;;;16.33;8.13;;;-0.70;99.90;;;;;;4174691;28;20595;-82
2021/12/21 04:18:41;;;;;;;23.90;9.03;;;-0.70;99.90;;;;;;4179391;28;20465;-82
2021/12/21 04:20:44;;;;;;;21.23;8.77;;;-0.70;99.90;;;;;;4172926;28;20473;-79
2021/12/21 04:22:45;;;;;;;21.30;9.03;;;-0.70;99.90;;;;;;4178559;28;20491;-81
2021/12/21 04:24:48;;;;;;;17.77;7.60;;;-0.80;99.90;;;;;;4181477;28;20472;-82
2021/12/21 04:26:50;;;;;;;18.47;8.03;;;-0.70;99.90;;;;;;4185450;28;20538;-80
2021/12/21 04:28:51;;;;;;;20.97;8.37;;;-0.80;99.90;;;;;;4178040;28;20449;-82
2021/12/21 04:30:53;;;;;;;19.97;8.80;;;-0.80;99.90;;;;;;4178711;28;20506;-82
2021/12/21 04:32:56;;;;;;;22.53;8.90;;;-0.80;99.90;;;;;;4179036;28;20475;-81
2021/12/21 04:34:58;;;;;;;17.17;8.73;;;-0.80;99.90;;;;;;4184978;28;20475;-82
2021/12/21 04:37:00;;;;;;;22.00;8.90;;;-0.80;99.90;;;;;;4182863;28;20485;-81
2021/12/21 04:39:05;;;;;;;20.50;9.00;;;-0.90;99.90;;;;;;4178611;28;20453;-82
2021/12/21 04:41:13;;;;;;;18.97;8.67;;;-0.90;99.90;;;;;;4179315;28;20801;-82
2021/12/21 04:43:15;;;;;;;17.13;8.43;;;-0.90;99.90;;;;;;4179639;28;20547;-82
2021/12/21 04:45:17;;;;;;;19.90;8.33;;;-0.90;99.90;;;;;;4195014;28;20866;-82
2021/12/21 04:47:19;;;;;;;17.30;8.17;;;-0.90;99.90;;;;;;4174239;28;20564;-82
2021/12/21 04:49:22;;;;;;;16.27;7.90;;;-0.90;99.90;;;;;;4178311;28;20946;-82
2021/12/21 04:51:24;;;;;;;16.87;8.30;;;-1.00;99.90;;;;;;4179376;28;20242;-82
2021/12/21 04:53:25;;;;;;;20.67;8.77;;;-1.00;99.90;;;;;;4184709;28;20457;-82
2021/12/21 04:55:27;;;;;;;16.27;7.33;;;-1.00;99.90;;;;;;4178901;28;20484;-82
2021/12/21 04:57:29;;;;;;;19.48;8.43;;;-1.00;99.90;;;;;;4185837;28;20925;-80
2021/12/21 04:59:31;;;;;;;18.93;7.60;;;-1.00;99.90;;;;;;4178667;28;20614;-82
2021/12/21 05:01:32;;;;;;;22.20;8.37;;;-1.00;99.90;;;;;;4175919;28;20884;-81
2021/12/21 05:03:34;;;;;;;18.55;8.35;;;-1.10;99.90;;;;;;4178045;28;20465;-80
2021/12/21 05:05:37;;;;;;;18.03;8.17;;;-1.10;99.90;;;;;;4175386;28;20765;-82
2021/12/21 05:07:41;;;;;;;19.33;7.70;;;-1.10;99.90;;;;;;4178859;28;20461;-82
2021/12/21 05:09:45;;;;;;;22.00;7.87;;;-1.10;99.90;;;;;;4177463;28;20471;-81
2021/12/21 05:11:47;;;;;;;20.98;7.85;;;-1.10;99.90;;;;;;4177217;28;20560;-83
2021/12/21 05:13:49;;;;;;;16.17;8.10;;;-1.20;99.90;;;;;;4174488;28;20410;-82
2021/12/21 05:15:51;;;;;;;17.23;7.53;;;-1.20;99.90;;;;;;4186188;28;20497;-82
2021/12/21 05:17:52;;;;;;;22.77;7.77;;;-1.20;99.90;;;;;;4174187;28;20211;-82
2021/12/21 05:19:54;;;;;;;16.92;7.60;;;-1.10;99.90;;;;;;4171376;28;20518;-82
2021/12/21 05:21:57;;;;;;;15.50;7.20;;;-1.20;99.90;;;;;;4172693;28;20233;-82
2021/12/21 05:23:59;;;;;;;20.00;8.68;;;-1.20;99.90;;;;;;4173028;28;20506;-82
2021/12/21 05:26:01;;;;;;;16.67;8.02;;;-1.30;99.90;;;;;;4171685;28;20218;-83
2021/12/21 05:28:03;;;;;;;18.43;8.03;;;-1.30;99.90;;;;;;4170480;28;20615;-82
2021/12/21 05:30:06;;;;;;;18.95;8.18;;;-1.30;99.90;;;;;;4180460;28;20468;-81
2021/12/21 05:32:08;;;;;;;17.37;7.23;;;-1.30;99.90;;;;;;4173507;28;20856;-82
2021/12/21 05:34:10;;;;;;;17.70;6.85;;;-1.30;99.90;;;;;;4178504;28;20477;-82
2021/12/21 05:36:12;;;;;;;16.33;7.40;;;-1.30;99.90;;;;;;4179060;28;20227;-80
2021/12/21 05:38:19;;;;;;;13.95;6.88;;;-1.30;99.90;;;;;;4162495;28;20280;-82
2021/12/21 05:40:20;;;;;;;15.35;7.93;;;-1.30;99.90;;;;;;4161594;28;20242;-81
2021/12/21 05:42:22;;;;;;;14.55;6.88;;;-1.40;99.90;;;;;;4177549;28;20245;-81
2021/12/21 05:44:27;;;;;;;16.07;6.63;;;-1.40;99.90;;;;;;4176844;28;20222;-81
2021/12/21 05:46:28;;;;;;;15.97;7.33;;;-1.40;99.90;;;;;;4178420;28;20484;-82
2021/12/21 05:48:30;;;;;;;14.75;7.25;;;-1.40;99.90;;;;;;4172157;28;20966;-78
2021/12/21 05:50:32;;;;;;;16.90;7.40;;;-1.40;99.90;;;;;;4171426;28;20215;-80
2021/12/21 05:52:33;;;;;;;18.70;7.95;;;-1.40;99.90;;;;;;4183732;28;20238;-82
2021/12/21 05:54:37;;;;;;;15.80;7.80;;;-1.40;99.90;;;;;;4178270;28;20222;-82
2021/12/21 05:56:38;;;;;;;15.18;7.05;;;-1.40;99.90;;;;;;4178713;28;20530;-82
2021/12/21 05:58:40;;;;;;;15.10;7.35;;;-1.40;99.90;;;;;;4179111;28;20207;-81
2021/12/21 06:00:42;;;;;;;17.73;8.10;;;-1.30;99.90;;;;;;4183349;28;20211;-81
2021/12/21 06:02:45;;;;;;;19.70;7.43;;;-1.50;99.90;;;;;;4178774;28;20465;-82
2021/12/21 06:04:46;;;;;;;18.53;8.10;;;-1.50;99.90;;;;;;4178557;28;20214;-81
2021/12/21 06:06:48;;;;;;;17.35;7.80;;;-1.50;99.90;;;;;;4176694;28;20985;-81
2021/12/21 06:08:52;;;;;;;17.20;7.45;;;-1.50;99.90;;;;;;4173035;28;20211;-82
2021/12/21 06:10:56;;;;;;;16.83;7.05;;;-1.50;99.90;;;;;;4173973;28;20210;-81
2021/12/21 06:15:23;;;;;;;17.65;6.35;;;-1.60;99.90;;;;;;4173696;28;20710;-81
2021/12/21 06:26:56;;;;;;;21.88;7.22;;;-1.60;99.90;;;;;;4179360;28;20238;-79
2021/12/21 06:28:58;;;;;;;15.13;7.10;;;-1.60;99.90;;;;;;4176541;28;20210;-81
2021/12/21 06:31:00;;;;;;;18.00;6.95;;;-1.70;99.90;;;;;;4169231;28;20214;-80
2021/12/21 06:33:02;;;;;;;12.30;6.32;;;-1.70;99.90;;;;;;4170033;28;20234;-81
2021/12/21 06:35:05;;;;;;;16.33;7.07;;;-1.70;99.90;;;;;;4171827;28;20217;-80
2021/12/21 06:37:08;;;;;;;17.10;7.30;;;-1.70;99.90;;;;;;4170909;28;20219;-80
2021/12/21 06:39:10;;;;;;;16.48;7.32;;;-1.70;99.90;;;;;;4169556;28;20256;-82
2021/12/21 06:41:12;;;;;;;14.52;6.35;;;-1.70;99.90;;;;;;4171751;28;20256;-81
2021/12/21 06:43:16;;;;;;;15.52;7.05;;;-1.70;99.90;;;;;;4173888;28;20225;-81
2021/12/21 06:45:29;;;;;;;13.98;6.93;;;-1.80;99.90;;;;;;4168885;28;20244;-80
2021/12/21 06:52:13;;;;;;;19.75;7.85;;;-1.80;99.90;;;;;;4175631;28;20249;-79
2021/12/21 06:54:15;;;;;;;27.23;9.32;;;-1.80;99.90;;;;;;4174371;28;20210;-81
2021/12/21 06:56:18;;;;;;;39.13;10.38;;;-1.80;99.90;;;;;;4175529;28;20242;-80
2021/12/21 06:58:21;;;;;;;29.85;9.90;;;-1.80;99.90;;;;;;4176275;28;20222;-82
2021/12/21 07:00:23;;;;;;;32.50;9.57;;;-1.80;99.90;;;;;;4173666;28;20246;-82
2021/12/21 07:02:25;;;;;;;33.08;10.75;;;-1.80;99.90;;;;;;4176262;28;20257;-83
2021/12/21 07:04:27;;;;;;;33.28;10.65;;;-1.80;99.90;;;;;;4173754;28;20245;-81
2021/12/21 07:06:29;;;;;;;31.73;10.00;;;-1.80;99.90;;;;;;4172619;28;20303;-82
2021/12/21 07:08:43;;;;;;;38.35;11.15;;;-1.80;99.90;;;;;;4177511;28;20261;-82
2021/12/21 07:10:53;;;;;;;31.05;9.75;;;-1.80;99.90;;;;;;4177267;28;20297;-82
2021/12/21 07:20:04;;;;;;;19.20;8.38;;;-1.80;99.90;;;;;;4204053;28;20613;-82
2021/12/21 07:22:07;;;;;;;16.63;8.02;;;-1.80;99.90;;;;;;4196276;28;20205;-82
2021/12/21 07:24:09;;;;;;;18.27;7.97;;;-1.80;99.90;;;;;;4195616;28;20213;-82
2021/12/21 07:26:11;;;;;;;18.40;8.27;;;-1.80;99.90;;;;;;4196446;28;20357;-82
2021/12/21 07:28:12;;;;;;;16.08;7.75;;;-1.80;99.90;;;;;;4196150;28;20214;-80
2021/12/21 07:30:14;;;;;;;20.20;7.72;;;-1.70;99.90;;;;;;4189459;28;20210;-81
2021/12/21 07:32:16;;;;;;;15.15;7.43;;;-1.70;99.90;;;;;;4210352;22;20245;-75
2021/12/21 07:34:18;;;;;;;17.05;7.82;;;-1.70;99.90;;;;;;4171316;28;20637;-75
2021/12/21 07:36:21;;;;;;;17.35;7.97;;;-1.70;99.90;;;;;;4173105;28;20214;-75
2021/12/21 07:38:25;;;;;;;17.00;7.68;;;-1.60;99.90;;;;;;4170040;28;20218;-76
2021/12/21 07:40:26;;;;;;;16.73;8.18;;;-1.60;99.90;;;;;;4173123;28;20232;-76
2021/12/21 07:42:28;;;;;;;18.42;7.93;;;-1.60;99.90;;;;;;4175568;28;20234;-76
2021/12/21 07:44:30;;;;;;;14.80;7.70;;;-1.60;99.90;;;;;;4172854;28;20440;-75
2021/12/21 07:46:31;;;;;;;15.50;8.02;;;-1.60;99.90;;;;;;4169886;28;20575;-75
2021/12/21 07:48:34;;;;;;;22.90;9.18;;;-1.60;99.90;;;;;;4168263;28;20261;-76
2021/12/21 07:50:36;;;;;;;20.00;8.35;;;-1.60;99.90;;;;;;4169853;28;20726;-75
2021/12/21 07:52:39;;;;;;;19.10;8.30;;;-1.60;99.90;;;;;;4170612;28;20234;-76
2021/12/21 07:54:41;;;;;;;22.15;8.70;;;-1.60;99.90;;;;;;4170074;28;20210;-75
2021/12/21 07:56:43;;;;;;;19.73;7.93;;;-1.50;99.90;;;;;;4168387;28;20211;-75
2021/12/21 07:58:47;;;;;;;19.08;8.52;;;-1.50;99.90;;;;;;4169492;28;20231;-75
2021/12/21 08:00:49;;;;;;;18.93;7.77;;;-1.50;99.90;;;;;;4169689;28;20338;-75
2021/12/21 08:02:53;;;;;;;19.83;8.43;;;-1.40;99.90;;;;;;4168815;28;20551;-75
2021/12/21 08:04:55;;;;;;;20.38;8.65;;;-1.40;99.90;;;;;;4168358;28;20469;-75
2021/12/21 08:07:04;;;;;;;15.77;7.90;;;-1.40;99.90;;;;;;4171208;28;20210;-76
2021/12/21 08:09:07;;;;;;;16.63;8.07;;;-1.40;99.90;;;;;;4169410;28;20916;-75
2021/12/21 08:11:13;;;;;;;17.70;7.63;;;-1.30;99.90;;;;;;4170303;28;20739;-77
2021/12/21 08:13:16;;;;;;;17.17;8.50;;;-1.30;99.90;;;;;;4168580;28;20325;-75
2021/12/21 08:15:17;;;;;;;19.65;8.35;;;-1.30;99.90;;;;;;4168505;28;20472;-76
2021/12/21 08:17:20;;;;;;;19.87;8.47;;;-1.30;99.90;;;;;;4169818;28;20758;-75
2021/12/21 08:19:22;;;;;;;19.83;8.93;;;-1.20;99.90;;;;;;4169181;28;21001;-75
2021/12/21 08:21:25;;;;;;;15.67;8.00;;;-1.20;99.90;;;;;;4170378;28;20897;-75
2021/12/21 08:23:27;;;;;;;22.03;9.17;;;-1.20;99.90;;;;;;4169645;28;20477;-75
2021/12/21 08:25:30;;;;;;;16.77;8.63;;;-1.20;99.90;;;;;;4170414;28;20516;-75
2021/12/21 08:27:31;;;;;;;17.33;8.67;;;-1.10;99.90;;;;;;4170413;28;20484;-75
2021/12/21 08:29:33;;;;;;;18.60;9.23;;;-1.10;99.90;;;;;;4167825;28;20476;-75
2021/12/21 08:31:35;;;;;;;18.10;8.07;;;-1.00;99.90;;;;;;4155633;28;20981;-75
2021/12/21 08:33:37;;;;;;;17.37;8.20;;;-1.00;99.90;;;;;;4158676;28;20292;-75
2021/12/21 08:35:39;;;;;;;15.97;7.93;;;-1.00;99.90;;;;;;4157899;28;20466;-76
2021/12/21 08:37:44;;;;;;;18.53;8.60;;;-0.90;99.90;;;;;;4158870;28;20462;-75
2021/12/21 08:39:46;;;;;;;18.73;8.77;;;-0.90;99.90;;;;;;4158911;28;20521;-76
2021/12/21 08:41:55;;;;;;;16.80;8.00;;;-0.90;99.90;;;;;;4156397;28;20543;-75
2021/12/21 08:43:57;;;;;;;18.73;8.57;;;-0.80;99.90;;;;;;4159057;28;20565;-76
2021/12/21 08:45:59;;;;;;;16.10;7.93;;;-0.80;99.90;;;;;;4159180;28;20458;-74
2021/12/21 08:48:02;;;;;;;18.50;8.13;;;-0.80;99.90;;;;;;4157599;28;20718;-74
2021/12/21 08:50:06;;;;;;;18.10;7.43;;;-0.70;99.90;;;;;;4157150;28;20959;-75
2021/12/21 08:52:08;;;;;;;18.07;8.53;;;-0.70;99.90;;;;;;4158868;28;20998;-75
2021/12/21 08:54:11;;;;;;;15.23;8.17;;;-0.70;99.90;;;;;;4157161;28;20473;-75
2021/12/21 08:56:13;;;;;;;16.73;8.33;;;-0.60;99.90;;;;;;4159404;28;20466;-76
2021/12/21 08:58:16;;;;;;;16.90;8.67;;;-0.60;99.90;;;;;;4165400;28;20474;-74
2021/12/21 09:00:18;;;;;;;17.70;8.50;;;-0.60;99.90;;;;;;4157946;28;20957;-76
2021/12/21 09:02:20;;;;;;;17.77;8.97;;;-0.60;99.90;;;;;;4160144;28;20949;-76
2021/12/21 09:04:22;;;;;;;18.90;8.40;;;-0.60;99.90;;;;;;4160628;28;20462;-73
2021/12/21 09:06:25;;;;;;;20.30;8.93;;;-0.60;99.90;;;;;;4163577;28;20470;-76
2021/12/21 09:08:26;;;;;;;15.00;7.90;;;-0.50;99.90;;;;;;4167840;28;20465;-76
2021/12/21 09:10:30;;;;;;;17.17;8.33;;;-0.50;99.90;;;;;;4168389;28;21029;-75
2021/12/21 09:12:31;;;;;;;20.73;9.30;;;-0.50;99.90;;;;;;4163235;28;20524;-76
2021/12/21 09:14:35;;;;;;;19.40;9.27;;;-0.40;99.90;;;;;;4163837;28;20486;-76
2021/12/21 09:16:36;;;;;;;17.60;8.77;;;-0.40;99.90;;;;;;4166616;28;20486;-76
2021/12/21 09:18:38;;;;;;;20.17;8.57;;;-0.40;99.90;;;;;;4166705;28;20462;-76
2021/12/21 09:20:40;;;;;;;16.47;9.23;;;-0.40;99.90;;;;;;4160134;28;21367;-77
2021/12/21 09:22:42;;;;;;;17.73;8.90;;;-0.30;99.90;;;;;;4156402;28;20536;-76
2021/12/21 09:24:44;;;;;;;17.87;9.30;;;-0.30;99.90;;;;;;4156251;28;20477;-77
2021/12/21 09:26:46;;;;;;;19.13;8.70;;;-0.30;99.90;;;;;;4158497;28;20469;-75
2021/12/21 09:28:48;;;;;;;21.03;8.60;;;-0.30;99.90;;;;;;4157478;28;20472;-75
2021/12/21 09:30:51;;;;;;;16.57;9.10;;;-0.30;99.90;;;;;;4157568;28;20518;-77
2021/12/21 09:32:53;;;;;;;18.27;8.97;;;-0.30;99.90;;;;;;4155535;28;21083;-74
2021/12/21 09:34:54;;;;;;;17.07;8.80;;;-0.30;99.90;;;;;;4157210;28;20839;-78
2021/12/21 09:36:56;;;;;;;21.57;8.97;;;-0.20;99.90;;;;;;4156128;28;20466;-75
2021/12/21 09:38:58;;;;;;;23.17;9.83;;;-0.20;99.90;;;;;;4157298;28;20921;-76
2021/12/21 09:41:00;;;;;;;23.07;10.03;;;-0.20;99.90;;;;;;4158418;28;20467;-76
2021/12/21 09:43:02;;;;;;;22.93;9.77;;;-0.20;99.90;;;;;;4157613;28;20498;-77
2021/12/21 09:45:05;;;;;;;19.17;9.73;;;-0.20;99.90;;;;;;4157630;28;21043;-73
2021/12/21 09:47:10;;;;;;;21.97;10.23;;;-0.20;99.90;;;;;;4154579;28;20474;-77
2021/12/21 09:49:12;;;;;;;18.47;9.43;;;-0.10;99.90;;;;;;4156102;28;20473;-78
2021/12/21 09:51:15;;;;;;;18.33;8.73;;;-0.10;99.90;;;;;;4158167;28;20947;-77
2021/12/21 09:53:18;;;;;;;20.57;9.73;;;0.00;99.90;;;;;;4157584;28;21048;-74
2021/12/21 09:55:19;;;;;;;19.57;9.23;;;0.00;99.90;;;;;;4155514;28;21002;-75
2021/12/21 09:57:21;;;;;;;19.23;9.50;;;0.00;99.90;;;;;;4156332;28;20505;-76
2021/12/21 09:59:23;;;;;;;21.40;9.77;;;0.00;99.90;;;;;;4157664;28;20611;-74
2021/12/21 10:01:25;;;;;;;17.00;8.50;;;0.00;99.90;;;;;;4157364;28;20462;-77
2021/12/21 10:03:28;;;;;;;19.60;8.63;;;0.00;99.90;;;;;;4158006;28;20475;-78
2021/12/21 10:05:32;;;;;;;24.20;9.63;;;0.00;99.90;;;;;;4159039;28;20520;-77
2021/12/21 10:07:34;;;;;;;25.30;9.83;;;0.00;99.90;;;;;;4156702;28;20520;-76
2021/12/21 10:09:42;;;;;;;21.57;10.50;;;0.00;99.90;;;;;;4156599;28;20548;-75
2021/12/21 10:11:47;;;;;;;21.17;9.13;;;0.00;99.90;;;;;;4155970;28;20572;-77
2021/12/21 10:13:50;;;;;;;23.70;10.23;;;0.00;99.90;;;;;;4155248;28;20506;-77
2021/12/21 10:15:54;;;;;;;22.50;10.60;;;0.00;99.90;;;;;;4157358;28;20462;-77
2021/12/21 10:17:58;;;;;;;24.60;10.90;;;0.00;99.90;;;;;;4158264;28;20815;-76
2021/12/21 10:20:04;;;;;;;22.03;11.20;;;0.00;99.90;;;;;;4156888;28;20498;-76
2021/12/21 10:22:10;;;;;;;23.90;10.83;;;0.00;99.90;;;;;;4159281;28;20640;-76
2021/12/21 10:24:22;;;;;;;23.17;10.17;;;0.00;99.90;;;;;;4160016;28;20555;-75
2021/12/21 10:26:26;;;;;;;20.37;9.73;;;0.00;99.90;;;;;;4164848;28;20966;-74
2021/12/21 10:28:31;;;;;;;21.90;10.13;;;0.00;99.90;;;;;;4164878;28;20469;-75
2021/12/21 10:30:33;;;;;;;22.20;11.10;;;0.10;99.90;;;;;;4163966;28;20865;-75
2021/12/21 10:32:35;;;;;;;21.20;9.97;;;0.10;99.90;;;;;;4161949;28;20548;-75
2021/12/21 10:34:36;;;;;;;23.17;10.47;;;0.10;99.90;;;;;;4165359;28;20513;-74
2021/12/21 10:36:43;;;;;;;22.57;10.70;;;0.20;99.90;;;;;;4162243;28;20526;-76
2021/12/21 10:38:50;;;;;;;25.80;10.93;;;0.20;99.90;;;;;;4169835;28;20462;-76
2021/12/21 10:40:52;;;;;;;26.87;11.17;;;0.30;99.90;;;;;;4168313;28;20486;-74
2021/12/21 10:42:56;;;;;;;23.90;10.20;;;0.30;99.90;;;;;;4168068;28;20479;-75
2021/12/21 10:45:04;;;;;;;23.33;10.37;;;0.40;99.90;;;;;;4169429;28;20466;-76
2021/12/21 10:47:06;;;;;;;25.83;10.73;;;0.40;99.90;;;;;;4165372;28;20463;-73
2021/12/21 10:49:11;;;;;;;23.60;11.37;;;0.50;99.90;;;;;;4156119;28;20471;-78
2021/12/21 10:51:15;;;;;;;25.17;10.53;;;0.50;99.90;;;;;;4153878;28;20963;-77
2021/12/21 10:53:23;;;;;;;22.73;11.20;;;0.50;99.90;;;;;;4158115;28;20574;-77
2021/12/21 10:55:27;;;;;;;23.93;10.90;;;0.50;99.90;;;;;;4158623;28;20464;-78
2021/12/21 10:57:32;;;;;;;25.50;11.00;;;0.50;99.90;;;;;;4156049;28;20462;-79
2021/12/21 10:59:36;;;;;;;22.73;11.30;;;0.60;99.90;;;;;;4155901;28;20474;-74
2021/12/21 11:01:44;;;;;;;23.63;10.33;;;0.60;99.90;;;;;;4156681;28;20520;-76
2021/12/21 11:03:50;;;;;;;21.73;10.87;;;0.60;99.90;;;;;;4155167;28;20865;-77
2021/12/21 11:05:53;;;;;;;27.47;10.90;;;0.70;99.90;;;;;;4156218;28;20809;-76
2021/12/21 11:07:59;;;;;;;25.07;11.17;;;0.70;99.90;;;;;;4156075;28;21586;-77
2021/12/21 11:10:10;;;;;;;26.37;11.67;;;0.70;99.90;;;;;;4155121;28;20490;-76
2021/12/21 11:12:11;;;;;;;27.57;11.03;;;0.70;99.90;;;;;;4156491;28;20894;-75
2021/12/21 11:14:15;;;;;;;23.27;10.97;;;0.70;99.90;;;;;;4156486;28;20459;-77